Terminal Aerodrome Forecast
Issued by NWS Northern Indiana

Home | Current Version | Previous Version | Text Only | Print | Product List | Glossary Off
Versions: 1 2 3 4 5 6 7 8 9 10 11 12 13 14 15 16

630
FTUS43 KIWX 190526
TAFFWA
TAF
KFWA 190526Z 1906/2006 23003KT P6SM SCT150
     FM190800 VRB03KT P6SM VCSH SCT070
     FM191200 30007KT P6SM SCT040=

USA.gov is the U.S. government's official web portal to all federal, state and local government web resources and services.